Time;durP1;ratioP1;P1;durP2;ratioP2;P2;SDS_P1;SDS_P2;PMS_P1;PMS_P2;Temp;Humidity;BMP_temperature;BMP_pressure;BME280_temperature;BME280_humidity;BME280_pressure;Samples;Min_cycle;Max_cycle;Signal;HPM_P1;HPM_P2
2023/07/21 00:00:15;;;;;;;4.97;1.50;;;14.40;99.90;;;;;;5053130;28;20048;-74
2023/07/21 00:02:41;;;;;;;1.98;1.30;;;14.40;99.90;;;;;;5070022;28;20119;-74
2023/07/21 00:05:08;;;;;;;2.85;1.10;;;14.40;99.90;;;;;;5067236;28;20514;-74
2023/07/21 00:07:35;;;;;;;2.13;1.15;;;14.30;99.90;;;;;;5072762;28;20044;-74
2023/07/21 00:10:07;;;;;;;2.05;1.30;;;14.30;99.90;;;;;;5056502;28;20456;-74
2023/07/21 00:12:37;;;;;;;3.92;1.40;;;14.20;99.90;;;;;;5072862;28;20507;-74
2023/07/21 00:15:04;;;;;;;3.22;1.55;;;14.20;99.90;;;;;;5054765;28;20044;-74
2023/07/21 00:17:32;;;;;;;4.63;1.90;;;14.20;99.90;;;;;;5065127;28;20063;-74
2023/07/21 00:20:03;;;;;;;5.15;2.00;;;14.10;99.90;;;;;;5055841;28;20462;-75
2023/07/21 00:22:28;;;;;;;5.13;1.92;;;14.00;99.90;;;;;;5072692;28;20040;-74
2023/07/21 00:24:54;;;;;;;2.03;1.10;;;13.90;99.90;;;;;;5057481;28;20446;-74
2023/07/21 00:27:19;;;;;;;2.05;1.10;;;13.90;99.90;;;;;;5053427;28;20052;-73
2023/07/21 00:29:45;;;;;;;3.28;1.38;;;13.90;99.90;;;;;;5047982;28;20051;-74
2023/07/21 00:32:17;;;;;;;2.55;1.25;;;14.00;99.90;;;;;;5072524;28;20447;-74
2023/07/21 00:34:43;;;;;;;2.33;1.15;;;14.00;99.90;;;;;;5057636;28;20045;-74
2023/07/21 00:37:10;;;;;;;4.50;1.30;;;13.90;99.90;;;;;;5052277;28;20132;-75
2023/07/21 00:39:36;;;;;;;3.47;1.20;;;13.90;99.90;;;;;;5052290;28;20127;-74
2023/07/21 00:42:04;;;;;;;1.35;1.00;;;13.90;99.90;;;;;;5052673;28;20559;-74
2023/07/21 00:44:30;;;;;;;1.85;1.00;;;13.90;99.90;;;;;;5052232;28;20040;-74
2023/07/21 00:46:56;;;;;;;3.00;1.42;;;13.80;99.90;;;;;;5053499;28;20051;-74
2023/07/21 00:49:21;;;;;;;3.70;1.40;;;13.80;99.90;;;;;;5062392;28;20036;-75
2023/07/21 00:51:47;;;;;;;1.58;1.02;;;13.80;99.90;;;;;;5055558;28;20043;-75
2023/07/21 00:54:13;;;;;;;2.67;1.40;;;13.70;99.90;;;;;;5063131;28;20462;-75
2023/07/21 00:56:38;;;;;;;3.80;1.80;;;13.60;99.90;;;;;;5053276;28;20040;-74
2023/07/21 00:59:04;;;;;;;3.58;1.70;;;13.50;99.90;;;;;;5052138;28;20041;-74
2023/07/21 01:01:30;;;;;;;2.78;1.40;;;13.40;99.90;;;;;;5053262;28;20041;-74
2023/07/21 01:03:56;;;;;;;2.63;1.48;;;13.30;99.90;;;;;;5036831;28;20037;-73
2023/07/21 01:06:27;;;;;;;3.45;1.80;;;13.20;99.90;;;;;;5051846;28;20037;-74
2023/07/21 01:08:56;;;;;;;5.18;2.15;;;13.10;99.90;;;;;;5051127;28;20408;-74
2023/07/21 01:11:22;;;;;;;3.78;1.75;;;13.10;99.90;;;;;;5068229;28;20116;-74
2023/07/21 01:13:50;;;;;;;3.25;1.30;;;13.20;99.90;;;;;;5062066;28;20507;-75
2023/07/21 01:16:16;;;;;;;1.70;1.00;;;13.20;99.90;;;;;;5068707;28;20504;-75
2023/07/21 01:18:43;;;;;;;0.70;0.63;;;13.20;99.90;;;;;;5051839;28;20588;-75
2023/07/21 01:21:14;;;;;;;1.30;0.60;;;13.20;99.90;;;;;;5053279;28;20045;-75
2023/07/21 01:23:58;;;;;;;0.70;0.70;;;13.20;99.90;;;;;;5053001;28;20087;-74
2023/07/21 01:26:25;;;;;;;1.40;0.95;;;13.20;99.90;;;;;;5068429;28;20496;-74
2023/07/21 01:28:52;;;;;;;1.15;0.82;;;13.20;99.90;;;;;;5067916;28;20094;-75
2023/07/21 01:31:19;;;;;;;1.38;0.80;;;13.10;99.90;;;;;;5060320;28;20040;-74
2023/07/21 01:33:45;;;;;;;1.13;0.85;;;12.90;99.90;;;;;;5063273;28;20489;-73
2023/07/21 01:36:12;;;;;;;1.58;1.00;;;12.80;99.90;;;;;;5057292;28;20121;-74
2023/07/21 01:38:38;;;;;;;1.88;1.08;;;12.70;99.90;;;;;;5059912;28;20072;-73
2023/07/21 01:41:06;;;;;;;2.40;1.25;;;12.60;99.90;;;;;;5059184;28;20036;-74
2023/07/21 01:43:32;;;;;;;1.88;1.15;;;12.60;99.90;;;;;;5048473;28;20076;-74
2023/07/21 01:45:57;;;;;;;2.65;1.60;;;12.50;99.90;;;;;;5072630;28;20076;-74
2023/07/21 01:48:24;;;;;;;3.08;1.60;;;12.50;99.90;;;;;;5072848;28;20560;-74
2023/07/21 01:50:51;;;;;;;4.50;1.67;;;12.50;99.90;;;;;;5075933;28;20386;-74
2023/07/21 01:53:22;;;;;;;2.47;1.50;;;12.50;99.90;;;;;;5058130;28;20481;-74
2023/07/21 01:56:03;;;;;;;1.70;0.75;;;12.50;99.90;;;;;;5065496;28;20033;-74
2023/07/21 01:58:29;;;;;;;1.05;0.47;;;12.50;99.90;;;;;;5064436;28;20037;-74
2023/07/21 02:00:56;;;;;;;0.63;0.55;;;12.60;99.90;;;;;;5084362;28;20104;-74
2023/07/21 02:03:23;;;;;;;1.45;0.60;;;12.60;99.90;;;;;;5070868;28;20036;-74
2023/07/21 02:05:49;;;;;;;0.70;0.70;;;12.60;99.90;;;;;;5076911;28;20431;-74
2023/07/21 02:08:15;;;;;;;1.83;0.80;;;12.60;99.90;;;;;;5061809;28;20032;-74
2023/07/21 02:10:41;;;;;;;1.48;0.90;;;12.50;99.90;;;;;;5075167;28;20032;-74
2023/07/21 02:13:06;;;;;;;1.30;1.00;;;12.30;99.90;;;;;;5063331;28;20041;-74
2023/07/21 02:15:32;;;;;;;3.17;1.30;;;12.20;99.90;;;;;;5046314;28;20044;-73
2023/07/21 02:17:58;;;;;;;3.20;1.60;;;12.10;99.90;;;;;;5073451;28;20048;-73
2023/07/21 02:20:23;;;;;;;3.22;0.90;;;12.10;99.90;;;;;;5072811;28;20505;-74
2023/07/21 02:22:49;;;;;;;0.70;0.70;;;12.10;99.90;;;;;;5061141;28;20119;-73
2023/07/21 02:25:15;;;;;;;1.25;0.70;;;12.10;99.90;;;;;;5064572;28;20056;-73
2023/07/21 02:27:42;;;;;;;0.60;0.60;;;12.10;99.90;;;;;;5062177;28;20052;-73
2023/07/21 02:30:08;;;;;;;1.15;0.98;;;12.00;99.90;;;;;;5075059;28;20040;-73
2023/07/21 02:32:33;;;;;;;2.42;1.35;;;12.10;99.90;;;;;;5074826;28;20400;-73
2023/07/21 02:34:59;;;;;;;1.85;1.20;;;12.10;99.90;;;;;;5073579;28;20037;-73
2023/07/21 02:37:25;;;;;;;0.85;0.70;;;12.20;99.90;;;;;;5056641;28;20051;-74
2023/07/21 02:39:51;;;;;;;1.20;0.82;;;12.00;99.90;;;;;;5056698;28;20036;-73
2023/07/21 02:42:17;;;;;;;1.00;0.82;;;12.00;99.90;;;;;;5055803;28;20047;-73
2023/07/21 02:44:43;;;;;;;1.33;0.55;;;12.10;99.90;;;;;;5054273;28;20044;-74
2023/07/21 02:47:09;;;;;;;1.40;0.57;;;12.10;99.90;;;;;;5041876;28;20513;-74
2023/07/21 02:49:34;;;;;;;0.95;0.70;;;12.10;99.90;;;;;;5041622;28;20229;-74
2023/07/21 02:52:00;;;;;;;3.80;1.02;;;12.00;99.90;;;;;;5069014;28;20036;-74
2023/07/21 02:54:26;;;;;;;1.30;0.90;;;12.00;99.90;;;;;;5057002;28;20065;-74
2023/07/21 02:56:51;;;;;;;2.08;1.20;;;11.90;99.90;;;;;;5071032;28;20118;-74
2023/07/21 02:59:18;;;;;;;2.10;0.93;;;11.80;99.90;;;;;;5055588;28;20488;-74
2023/07/21 03:01:54;;;;;;;0.70;0.60;;;11.90;99.90;;;;;;5054275;28;20048;-74
2023/07/21 03:04:24;;;;;;;2.45;0.70;;;11.90;99.90;;;;;;5054434;28;20041;-74
2023/07/21 03:06:50;;;;;;;0.68;0.68;;;11.80;99.90;;;;;;5052815;28;20049;-74
2023/07/21 03:09:16;;;;;;;1.23;0.88;;;11.90;99.90;;;;;;5053971;28;20036;-74
2023/07/21 03:11:41;;;;;;;1.38;1.00;;;11.90;99.90;;;;;;5054334;28;20032;-74
2023/07/21 03:14:09;;;;;;;2.03;0.85;;;11.80;99.90;;;;;;5061027;28;20083;-74
2023/07/21 03:16:36;;;;;;;1.20;0.82;;;11.90;99.90;;;;;;5052711;28;20110;-74
2023/07/21 03:19:01;;;;;;;2.30;0.90;;;11.80;99.90;;;;;;5056691;28;20033;-74
2023/07/21 03:21:27;;;;;;;1.73;1.10;;;11.70;99.90;;;;;;5039073;28;20552;-74
2023/07/21 03:23:53;;;;;;;1.05;0.60;;;11.70;99.90;;;;;;5070729;28;20071;-74
2023/07/21 03:26:18;;;;;;;0.38;0.38;;;11.80;99.90;;;;;;5071681;28;20036;-74
2023/07/21 03:28:44;;;;;;;0.40;0.40;;;11.80;99.90;;;;;;5062044;28;20048;-74
2023/07/21 03:31:10;;;;;;;0.50;0.50;;;11.80;99.90;;;;;;5073961;28;20431;-74
2023/07/21 03:33:36;;;;;;;0.50;0.50;;;11.80;99.90;;;;;;5069242;28;20048;-74
2023/07/21 03:36:04;;;;;;;0.60;0.50;;;11.80;99.90;;;;;;5069961;28;20401;-74
2023/07/21 03:38:32;;;;;;;0.47;0.47;;;11.80;99.90;;;;;;5070089;28;20041;-74
2023/07/21 03:41:05;;;;;;;0.50;0.50;;;11.80;99.90;;;;;;5070253;28;20041;-74
2023/07/21 03:43:32;;;;;;;1.13;0.60;;;11.80;99.90;;;;;;5073762;28;20040;-74
2023/07/21 03:46:02;;;;;;;1.10;0.55;;;11.80;99.90;;;;;;5071364;28;20044;-74
2023/07/21 03:48:29;;;;;;;0.65;0.60;;;11.70;99.90;;;;;;5054362;28;20493;-74
2023/07/21 03:51:03;;;;;;;1.10;0.70;;;11.60;99.90;;;;;;5073187;28;20043;-74
2023/07/21 03:53:29;;;;;;;0.85;0.70;;;11.50;99.90;;;;;;5053695;28;20063;-74
2023/07/21 03:55:55;;;;;;;1.27;0.85;;;11.50;99.90;;;;;;5070220;28;20406;-74
2023/07/21 03:58:21;;;;;;;1.15;0.90;;;11.50;99.90;;;;;;5057806;28;20037;-74
2023/07/21 04:00:47;;;;;;;1.73;0.90;;;11.50;99.90;;;;;;5073097;28;20049;-74
2023/07/21 04:03:14;;;;;;;2.92;1.10;;;11.50;99.90;;;;;;5072715;28;20040;-74
2023/07/21 04:05:40;;;;;;;1.33;1.08;;;11.40;99.90;;;;;;5060795;28;20492;-74
2023/07/21 04:08:06;;;;;;;1.58;1.15;;;11.40;99.90;;;;;;5056140;28;20066;-74
2023/07/21 04:10:32;;;;;;;1.58;0.90;;;11.30;99.90;;;;;;5060945;28;20381;-74
2023/07/21 04:12:58;;;;;;;2.10;1.10;;;11.30;99.90;;;;;;5076062;28;20493;-74
2023/07/21 04:15:26;;;;;;;1.65;1.10;;;11.30;99.90;;;;;;5056416;28;20044;-73
2023/07/21 04:17:55;;;;;;;2.42;1.10;;;11.30;99.90;;;;;;5063074;28;20082;-74
2023/07/21 04:20:22;;;;;;;1.52;0.82;;;11.30;99.90;;;;;;5052612;28;20045;-74
2023/07/21 04:22:48;;;;;;;1.50;0.95;;;11.40;99.90;;;;;;5053911;28;20536;-74
2023/07/21 04:25:15;;;;;;;2.58;1.17;;;11.40;99.90;;;;;;5069290;28;20067;-74
2023/07/21 04:27:41;;;;;;;0.80;0.80;;;11.50;99.90;;;;;;5053732;28;20049;-74
2023/07/21 04:30:07;;;;;;;0.75;0.70;;;11.50;99.90;;;;;;5056744;28;20512;-74
2023/07/21 04:32:33;;;;;;;1.27;0.88;;;11.50;99.90;;;;;;5072462;28;20473;-74
2023/07/21 04:34:59;;;;;;;1.20;0.90;;;11.50;99.90;;;;;;5055817;28;20033;-74
2023/07/21 04:37:25;;;;;;;1.60;0.93;;;11.60;99.90;;;;;;5072406;28;20120;-74
2023/07/21 04:39:51;;;;;;;1.58;0.90;;;11.50;99.90;;;;;;5073598;28;20072;-74
2023/07/21 04:42:17;;;;;;;1.50;0.80;;;11.40;99.90;;;;;;5073648;28;20046;-74
2023/07/21 04:44:44;;;;;;;1.23;1.00;;;11.40;99.90;;;;;;5055880;28;20551;-74
2023/07/21 04:47:10;;;;;;;2.33;0.90;;;11.40;99.90;;;;;;5056083;28;20037;-74
2023/07/21 04:49:36;;;;;;;2.35;1.10;;;11.40;99.90;;;;;;5072047;28;20037;-74
2023/07/21 04:52:02;;;;;;;3.60;1.20;;;11.50;99.90;;;;;;5055590;28;20036;-74
2023/07/21 04:54:28;;;;;;;2.03;0.98;;;11.60;99.90;;;;;;5072179;28;20032;-74
2023/07/21 04:56:53;;;;;;;2.83;1.20;;;11.60;99.90;;;;;;5073473;28;20047;-74
2023/07/21 04:59:20;;;;;;;2.28;1.17;;;11.70;99.90;;;;;;5072285;28;20041;-74
2023/07/21 05:01:46;;;;;;;3.65;1.13;;;11.70;99.90;;;;;;5072338;28;20404;-74
2023/07/21 05:04:14;;;;;;;3.63;1.25;;;11.70;99.90;;;;;;5072583;28;20493;-74
2023/07/21 05:06:43;;;;;;;1.20;1.00;;;11.80;99.90;;;;;;5061143;28;20123;-74
2023/07/21 05:09:09;;;;;;;2.70;1.20;;;11.80;99.90;;;;;;5052152;28;20040;-74
2023/07/21 05:11:35;;;;;;;2.35;1.13;;;11.80;99.90;;;;;;5068574;28;20051;-74
2023/07/21 05:14:03;;;;;;;2.95;1.20;;;11.80;99.90;;;;;;5077838;28;20556;-74
2023/07/21 05:16:30;;;;;;;2.30;1.50;;;11.90;99.90;;;;;;5060632;28;20382;-74
2023/07/21 05:18:56;;;;;;;5.50;1.60;;;11.90;99.90;;;;;;5068007;28;20051;-74
2023/07/21 05:21:21;;;;;;;4.05;1.40;;;11.90;99.90;;;;;;5070139;28;20044;-74
2023/07/21 05:23:47;;;;;;;4.72;1.52;;;11.90;99.90;;;;;;5071846;28;20041;-74
2023/07/21 05:26:13;;;;;;;1.88;1.30;;;12.00;99.90;;;;;;5035148;28;20064;-74
2023/07/21 05:28:38;;;;;;;3.80;1.55;;;12.00;99.90;;;;;;5064692;28;20056;-74
2023/07/21 05:31:06;;;;;;;2.75;1.38;;;12.10;99.90;;;;;;5060740;28;20132;-74
2023/07/21 05:33:32;;;;;;;2.67;1.35;;;12.10;99.90;;;;;;5058517;28;20049;-73
2023/07/21 05:36:09;;;;;;;2.05;1.40;;;12.20;99.90;;;;;;5069490;28;20499;-74
2023/07/21 05:38:35;;;;;;;4.70;1.40;;;12.30;99.90;;;;;;5052465;28;20081;-74
2023/07/21 05:41:01;;;;;;;3.17;1.70;;;12.30;99.90;;;;;;5054308;28;20099;-74
2023/07/21 05:43:27;;;;;;;4.28;2.20;;;12.40;99.90;;;;;;5068300;28;20037;-73
2023/07/21 05:45:53;;;;;;;4.30;2.55;;;12.50;99.90;;;;;;5067896;28;20067;-74
2023/07/21 05:48:19;;;;;;;6.10;2.88;;;12.60;99.90;;;;;;5071653;28;20489;-73
2023/07/21 05:50:44;;;;;;;5.55;2.97;;;12.70;99.90;;;;;;5057187;28;20449;-74
2023/07/21 05:53:10;;;;;;;6.43;3.10;;;12.80;99.90;;;;;;5051599;28;20079;-74
2023/07/21 05:55:37;;;;;;;6.50;3.30;;;12.90;99.90;;;;;;5052186;28;20452;-73
2023/07/21 05:58:02;;;;;;;6.75;2.97;;;13.00;99.90;;;;;;5063357;28;20048;-73
2023/07/21 06:00:29;;;;;;;5.72;2.67;;;13.20;99.90;;;;;;5065979;28;20036;-74
2023/07/21 06:02:54;;;;;;;6.93;3.17;;;13.20;99.90;;;;;;5056222;28;20040;-73
2023/07/21 06:05:20;;;;;;;6.65;3.05;;;13.40;99.90;;;;;;5066828;28;20478;-73
2023/07/21 06:07:45;;;;;;;6.90;2.70;;;13.50;99.90;;;;;;5071804;28;20044;-74
2023/07/21 06:10:12;;;;;;;7.32;2.72;;;13.60;99.90;;;;;;5057387;28;20040;-73
2023/07/21 06:12:38;;;;;;;5.88;2.78;;;13.80;99.90;;;;;;5052565;28;20052;-74
2023/07/21 06:15:08;;;;;;;4.85;2.30;;;14.00;99.90;;;;;;5052774;28;20052;-73
2023/07/21 06:17:33;;;;;;;5.97;2.10;;;14.10;99.90;;;;;;5052661;28;20135;-73
2023/07/21 06:20:00;;;;;;;5.10;2.20;;;14.20;99.90;;;;;;5068560;28;20473;-74
2023/07/21 06:22:26;;;;;;;4.43;2.00;;;14.30;99.90;;;;;;5071038;28;20119;-74
2023/07/21 06:24:51;;;;;;;5.90;1.88;;;14.60;99.90;;;;;;5061833;28;20116;-74
2023/07/21 06:27:18;;;;;;;5.82;2.17;;;14.70;99.90;;;;;;5063137;28;20129;-73
2023/07/21 06:29:44;;;;;;;6.43;2.08;;;14.90;99.90;;;;;;5075321;28;20048;-73
2023/07/21 06:32:09;;;;;;;4.80;1.80;;;15.00;99.90;;;;;;5076174;28;20033;-73
2023/07/21 06:34:35;;;;;;;4.82;1.90;;;15.10;99.90;;;;;;5076128;28;20044;-73
2023/07/21 06:37:00;;;;;;;5.55;1.90;;;15.20;99.90;;;;;;5074848;28;20108;-73
2023/07/21 06:39:26;;;;;;;7.60;2.17;;;15.30;99.90;;;;;;5075931;28;20047;-74
2023/07/21 06:41:51;;;;;;;3.78;1.90;;;15.50;99.90;;;;;;5074611;28;20056;-73
2023/07/21 06:44:20;;;;;;;4.50;1.65;;;15.60;99.90;;;;;;5075833;28;20051;-73
2023/07/21 06:46:47;;;;;;;5.22;2.00;;;15.80;99.90;;;;;;5075730;28;20044;-73
2023/07/21 06:49:14;;;;;;;3.10;1.60;;;15.90;99.90;;;;;;5075901;28;20037;-74
2023/07/21 06:51:40;;;;;;;4.05;1.75;;;16.00;99.90;;;;;;5075755;28;20033;-73
2023/07/21 06:54:08;;;;;;;5.88;2.08;;;16.10;99.90;;;;;;5075651;28;20044;-73
2023/07/21 06:56:34;;;;;;;5.88;2.20;;;16.20;99.90;;;;;;5075881;28;20489;-73
2023/07/21 06:59:00;;;;;;;3.92;1.80;;;16.30;99.90;;;;;;5075780;28;20045;-73
2023/07/21 07:01:25;;;;;;;5.15;1.70;;;16.40;99.90;;;;;;5075542;28;20143;-74
2023/07/21 07:03:51;;;;;;;4.13;1.90;;;16.60;99.90;;;;;;5075506;28;20555;-73
2023/07/21 07:06:17;;;;;;;4.43;1.90;;;16.60;99.90;;;;;;5074319;28;20041;-73
2023/07/21 07:08:43;;;;;;;3.83;1.90;;;16.70;99.90;;;;;;5075297;28;20093;-74
2023/07/21 07:11:09;;;;;;;4.30;1.60;;;16.80;99.90;;;;;;5074318;28;20427;-73
2023/07/21 07:13:35;;;;;;;6.25;1.70;;;16.90;99.90;;;;;;5075503;28;20032;-74
2023/07/21 07:16:00;;;;;;;3.83;1.38;;;16.90;99.90;;;;;;5075294;28;20040;-73
2023/07/21 07:18:26;;;;;;;2.60;1.40;;;16.90;99.90;;;;;;5074033;28;20051;-73
2023/07/21 07:20:53;;;;;;;4.45;1.50;;;17.00;99.90;;;;;;5073873;28;20052;-73
2023/07/21 07:23:20;;;;;;;4.75;1.52;;;17.00;99.90;;;;;;5075228;28;20123;-74
2023/07/21 07:25:47;;;;;;;3.63;1.70;;;17.20;99.90;;;;;;5075417;28;20499;-73
2023/07/21 07:28:13;;;;;;;3.67;1.70;;;17.10;99.90;;;;;;5074818;28;20049;-73
2023/07/21 07:30:39;;;;;;;5.00;1.60;;;17.20;99.90;;;;;;5075046;28;20037;-73
2023/07/21 07:33:05;;;;;;;3.13;1.67;;;17.30;99.90;;;;;;5074869;28;20110;-74
2023/07/21 07:35:31;;;;;;;4.45;1.70;;;17.40;99.90;;;;;;5074907;28;20036;-73
2023/07/21 07:37:56;;;;;;;3.78;1.70;;;17.30;99.90;;;;;;5074854;28;20040;-73
2023/07/21 07:40:22;;;;;;;3.17;1.50;;;17.40;99.90;;;;;;5075053;28;20044;-74
2023/07/21 07:42:48;;;;;;;3.95;1.60;;;17.50;99.90;;;;;;5073478;28;20044;-73
2023/07/21 07:45:14;;;;;;;3.97;1.52;;;17.60;99.90;;;;;;5074762;28;20072;-73
2023/07/21 07:47:42;;;;;;;3.08;1.48;;;17.60;99.90;;;;;;5073487;28;20076;-73
2023/07/21 07:50:10;;;;;;;3.83;1.70;;;17.60;99.90;;;;;;5074629;28;20032;-73
2023/07/21 07:52:36;;;;;;;3.50;1.77;;;17.70;99.90;;;;;;5056491;28;20489;-73
2023/07/21 07:55:02;;;;;;;13.98;1.83;;;17.80;99.90;;;;;;5073270;28;20044;-74
2023/07/21 07:57:28;;;;;;;4.30;1.23;;;17.80;99.90;;;;;;5074569;28;20043;-72
2023/07/21 07:59:54;;;;;;;3.78;1.48;;;17.90;99.90;;;;;;5052168;28;20048;-73
2023/07/21 08:02:20;;;;;;;2.58;1.30;;;17.90;99.90;;;;;;5057373;28;20076;-73
2023/07/21 08:04:46;;;;;;;4.57;1.20;;;18.00;99.90;;;;;;5074354;28;20086;-74
2023/07/21 08:07:12;;;;;;;2.78;1.10;;;18.00;99.90;;;;;;5074192;28;20444;-73
2023/07/21 08:09:37;;;;;;;4.28;1.33;;;18.10;99.90;;;;;;5062034;28;20045;-73
2023/07/21 08:12:03;;;;;;;4.47;1.27;;;18.30;99.90;;;;;;5054263;28;20063;-74
2023/07/21 08:14:29;;;;;;;2.60;1.20;;;18.40;99.90;;;;;;5056855;28;20029;-73
2023/07/21 08:16:54;;;;;;;2.00;1.13;;;18.50;99.90;;;;;;5074147;28;20101;-73
2023/07/21 08:19:20;;;;;;;3.58;1.45;;;18.60;99.90;;;;;;5074035;28;20040;-73
2023/07/21 08:21:48;;;;;;;3.05;1.50;;;18.70;99.90;;;;;;5072612;28;20032;-73
2023/07/21 08:24:15;;;;;;;3.85;1.60;;;18.80;99.90;;;;;;5067118;28;20036;-73
2023/07/21 08:26:41;;;;;;;2.38;1.30;;;18.90;99.90;;;;;;5063880;28;20039;-74
2023/07/21 08:29:08;;;;;;;6.18;1.40;;;19.00;99.90;;;;;;5072776;28;20408;-73
2023/07/21 08:31:34;;;;;;;5.20;1.40;;;19.10;99.90;;;;;;5072773;28;20052;-73
2023/07/21 08:34:00;;;;;;;2.60;1.27;;;19.20;99.90;;;;;;5072631;28;20040;-74
2023/07/21 08:36:26;;;;;;;2.80;1.42;;;19.20;99.90;;;;;;5061269;28;20095;-74
2023/07/21 08:38:52;;;;;;;2.28;1.30;;;19.40;99.90;;;;;;5072720;28;20048;-73
2023/07/21 08:41:19;;;;;;;2.22;1.10;;;19.40;99.90;;;;;;5071309;28;20080;-74
2023/07/21 08:43:48;;;;;;;2.90;1.42;;;19.40;99.90;;;;;;5072558;28;20145;-74
2023/07/21 08:46:15;;;;;;;3.75;1.10;;;19.60;99.90;;;;;;5073622;28;20431;-74
2023/07/21 08:48:41;;;;;;;3.30;1.30;;;19.60;99.90;;;;;;5053927;28;20128;-73
2023/07/21 08:51:07;;;;;;;3.58;1.38;;;19.70;99.90;;;;;;5069219;28;20424;-74
2023/07/21 08:53:33;;;;;;;3.63;1.30;;;19.80;99.90;;;;;;5065488;28;20090;-73
2023/07/21 08:56:00;;;;;;;4.13;1.23;;;19.80;99.90;;;;;;5063562;28;20033;-74
2023/07/21 08:58:26;;;;;;;2.83;1.30;;;19.60;99.90;;;;;;5069528;28;20044;-74
2023/07/21 09:00:53;;;;;;;4.82;1.40;;;19.70;99.90;;;;;;5072601;28;20123;-73
2023/07/21 09:03:30;;;;;;;3.13;1.35;;;19.60;99.90;;;;;;5073194;28;20044;-74
2023/07/21 09:05:57;;;;;;;3.67;1.30;;;19.80;99.90;;;;;;5073302;28;20051;-74
2023/07/21 09:08:28;;;;;;;4.47;1.20;;;19.90;99.90;;;;;;5066691;28;20121;-74
2023/07/21 09:11:01;;;;;;;3.85;1.50;;;20.00;99.90;;;;;;5052032;28;20080;-74
2023/07/21 09:13:28;;;;;;;3.92;1.52;;;20.10;99.90;;;;;;5053249;28;20485;-74
2023/07/21 09:15:58;;;;;;;3.30;1.30;;;20.10;99.90;;;;;;5065512;28;20583;-74
2023/07/21 09:18:34;;;;;;;3.42;1.23;;;20.10;99.90;;;;;;5071922;28;20056;-73
2023/07/21 09:21:00;;;;;;;2.83;1.35;;;20.10;99.90;;;;;;5072234;28;20048;-73
2023/07/21 09:23:29;;;;;;;2.78;1.38;;;20.00;99.90;;;;;;5070930;28;20074;-73
2023/07/21 09:25:57;;;;;;;2.65;1.40;;;19.90;99.90;;;;;;5049961;28;20049;-74
2023/07/21 09:28:40;;;;;;;4.10;1.40;;;19.90;99.90;;;;;;5059032;28;20109;-74
2023/07/21 09:31:06;;;;;;;3.50;1.50;;;20.00;99.90;;;;;;5062555;28;20066;-73
2023/07/21 09:33:38;;;;;;;3.80;1.30;;;20.00;99.90;;;;;;5062612;28;20040;-74
2023/07/21 09:36:13;;;;;;;3.25;1.30;;;19.90;99.90;;;;;;5069779;28;20037;-74
2023/07/21 09:38:39;;;;;;;5.68;1.40;;;19.80;99.90;;;;;;5050361;28;20051;-74
2023/07/21 09:41:10;;;;;;;2.85;1.40;;;19.60;99.90;;;;;;5052028;28;20033;-73
2023/07/21 09:43:37;;;;;;;2.33;1.27;;;19.60;99.90;;;;;;5055662;28;20397;-74
2023/07/21 09:46:05;;;;;;;2.42;1.48;;;19.70;99.90;;;;;;5055578;28;20078;-74
2023/07/21 09:48:31;;;;;;;2.92;1.25;;;19.80;99.90;;;;;;5071047;28;20076;-73
2023/07/21 09:50:59;;;;;;;2.80;1.20;;;19.90;99.90;;;;;;5062482;28;20044;-73
2023/07/21 09:53:36;;;;;;;2.67;1.30;;;19.80;99.90;;;;;;5051287;28;20098;-73
2023/07/21 09:56:03;;;;;;;3.00;1.40;;;19.80;99.90;;;;;;5057306;28;20091;-73
2023/07/21 09:58:30;;;;;;;2.13;1.20;;;19.70;99.90;;;;;;5068559;28;20041;-74
2023/07/21 10:01:03;;;;;;;2.80;1.42;;;19.60;99.90;;;;;;5060266;28;20405;-74
2023/07/21 10:03:36;;;;;;;5.15;1.20;;;19.60;99.90;;;;;;5055982;28;20561;-74
2023/07/21 10:06:03;;;;;;;2.80;1.30;;;19.60;99.90;;;;;;5041381;28;20048;-74
2023/07/21 10:08:33;;;;;;;3.08;1.20;;;19.50;99.90;;;;;;5042673;28;20129;-74
2023/07/21 10:10:59;;;;;;;2.60;1.27;;;19.40;99.90;;;;;;5076528;28;20044;-74
2023/07/21 10:13:26;;;;;;;2.92;1.30;;;19.30;99.90;;;;;;5057858;28;20083;-74
2023/07/21 10:15:53;;;;;;;5.00;1.52;;;19.20;99.90;;;;;;5062435;28;20043;-74
2023/07/21 10:18:18;;;;;;;2.95;1.30;;;19.20;99.90;;;;;;5055051;28;20051;-74
2023/07/21 10:20:53;;;;;;;4.00;1.38;;;19.00;99.90;;;;;;5055127;28;20045;-74
2023/07/21 10:23:34;;;;;;;2.95;1.58;;;19.00;99.90;;;;;;5053260;28;20045;-74
2023/07/21 10:26:09;;;;;;;3.27;1.60;;;19.00;99.90;;;;;;5075049;28;20084;-74
2023/07/21 10:28:39;;;;;;;2.75;1.40;;;19.20;99.90;;;;;;5065703;28;20303;-74
2023/07/21 10:31:25;;;;;;;2.95;1.45;;;19.30;99.90;;;;;;5072399;28;20048;-74
2023/07/21 10:34:07;;;;;;;4.57;1.40;;;19.60;99.90;;;;;;5068868;28;20489;-74
2023/07/21 10:36:48;;;;;;;2.50;1.25;;;19.70;99.90;;;;;;5064356;28;20120;-74
2023/07/21 10:39:20;;;;;;;3.63;1.50;;;19.60;99.90;;;;;;5060096;28;20033;-74
2023/07/21 10:41:50;;;;;;;3.10;1.42;;;19.60;99.90;;;;;;5057012;28;20098;-74
2023/07/21 10:44:16;;;;;;;2.10;1.20;;;19.60;99.90;;;;;;5068373;28;20242;-74
2023/07/21 10:46:44;;;;;;;1.35;1.10;;;19.60;99.90;;;;;;5072504;28;20036;-74
2023/07/21 10:49:12;;;;;;;3.95;1.63;;;19.60;99.90;;;;;;5075922;28;20411;-74
2023/07/21 10:51:41;;;;;;;4.03;1.55;;;19.70;99.90;;;;;;5065045;28;20045;-74
2023/07/21 10:54:07;;;;;;;7.03;1.42;;;19.70;99.90;;;;;;5074484;28;20484;-74
2023/07/21 10:56:41;;;;;;;2.80;1.38;;;19.70;99.90;;;;;;5075579;28;20051;-74
2023/07/21 10:59:08;;;;;;;6.15;2.15;;;19.90;99.90;;;;;;5064304;28;20041;-74
2023/07/21 11:01:38;;;;;;;4.28;1.80;;;20.10;99.90;;;;;;5055495;28;20051;-74
2023/07/21 11:04:04;;;;;;;3.88;1.60;;;20.20;99.90;;;;;;5054808;28;20048;-74
2023/07/21 11:06:29;;;;;;;2.92;1.50;;;20.20;99.90;;;;;;5055704;28;20098;-72
2023/07/21 11:08:56;;;;;;;3.33;1.50;;;20.20;99.90;;;;;;5057347;28;20048;-73
2023/07/21 11:11:21;;;;;;;3.67;1.58;;;20.20;99.90;;;;;;5070137;28;20067;-74
2023/07/21 11:13:47;;;;;;;3.35;1.55;;;20.10;99.90;;;;;;5075323;28;20071;-74
2023/07/21 11:16:13;;;;;;;3.22;1.60;;;20.10;99.90;;;;;;5067750;28;20071;-74
2023/07/21 11:18:42;;;;;;;2.55;1.50;;;20.00;99.90;;;;;;5072373;28;20055;-74
2023/07/21 11:21:08;;;;;;;4.43;1.60;;;20.10;99.90;;;;;;5073862;28;20040;-74
2023/07/21 11:23:33;;;;;;;4.00;1.50;;;20.00;99.90;;;;;;5073704;28;20044;-74
2023/07/21 11:26:09;;;;;;;4.22;1.77;;;20.00;99.90;;;;;;5073703;28;20076;-74
2023/07/21 11:28:37;;;;;;;3.22;1.40;;;20.20;99.90;;;;;;5055311;28;20201;-74
2023/07/21 11:31:09;;;;;;;4.00;1.60;;;20.10;99.90;;;;;;5056429;28;20076;-74
2023/07/21 11:33:43;;;;;;;5.07;2.10;;;20.10;99.90;;;;;;5058551;28;20413;-74
2023/07/21 11:36:12;;;;;;;9.65;3.80;;;20.10;99.90;;;;;;5073056;28;20048;-74
2023/07/21 11:38:38;;;;;;;4.35;1.70;;;20.00;99.90;;;;;;5072666;28;20511;-75
2023/07/21 11:41:03;;;;;;;3.03;2.03;;;20.10;99.90;;;;;;5074934;28;20047;-74
2023/07/21 11:43:29;;;;;;;4.97;1.90;;;20.00;99.90;;;;;;5073157;28;20043;-75
2023/07/21 11:45:55;;;;;;;4.25;1.80;;;20.00;99.90;;;;;;5073722;28;20499;-77
2023/07/21 11:48:22;;;;;;;5.28;2.10;;;20.20;99.90;;;;;;5073491;28;20052;-74
2023/07/21 11:50:54;;;;;;;5.20;1.77;;;20.30;99.90;;;;;;5067423;28;20076;-74
2023/07/21 11:53:25;;;;;;;2.90;1.70;;;20.30;99.90;;;;;;5072664;28;20385;-74
2023/07/21 11:55:50;;;;;;;4.00;1.75;;;20.40;99.90;;;;;;5074539;28;20507;-74
2023/07/21 11:58:16;;;;;;;3.50;1.30;;;20.30;99.90;;;;;;5073262;28;20040;-75
2023/07/21 12:00:43;;;;;;;3.17;1.52;;;20.20;99.90;;;;;;5068181;28;20028;-75
2023/07/21 12:03:10;;;;;;;5.18;1.65;;;20.30;99.90;;;;;;5056039;28;20087;-75
2023/07/21 12:05:35;;;;;;;3.85;1.55;;;20.40;99.90;;;;;;5054936;28;20060;-75
2023/07/21 12:08:01;;;;;;;3.35;1.45;;;20.50;99.90;;;;;;5052899;28;20048;-75
2023/07/21 12:10:27;;;;;;;2.38;1.20;;;20.70;99.90;;;;;;5074129;28;20050;-75
2023/07/21 12:12:53;;;;;;;3.55;1.33;;;20.90;99.90;;;;;;5085665;28;20037;-75
2023/07/21 12:15:19;;;;;;;3.97;1.67;;;21.00;99.90;;;;;;5036341;28;20154;-75
2023/07/21 12:17:47;;;;;;;3.30;1.20;;;21.10;99.90;;;;;;5053559;28;20049;-75
2023/07/21 12:20:13;;;;;;;3.03;1.60;;;21.20;99.90;;;;;;5064861;28;20485;-75
2023/07/21 12:22:40;;;;;;;4.13;1.38;;;21.30;99.90;;;;;;5071936;28;20040;-75
2023/07/21 12:25:07;;;;;;;4.40;1.20;;;21.40;99.90;;;;;;5072842;28;20037;-75
2023/07/21 12:27:34;;;;;;;3.58;1.40;;;21.30;99.90;;;;;;5071526;28;20131;-75
2023/07/21 12:30:07;;;;;;;2.63;1.30;;;21.10;99.10;;;;;;5072196;28;20041;-74
2023/07/21 12:32:33;;;;;;;4.60;1.20;;;20.90;99.60;;;;;;5071616;28;20051;-74
2023/07/21 12:34:59;;;;;;;3.53;1.35;;;20.80;99.90;;;;;;5050665;28;20033;-74
2023/07/21 12:37:24;;;;;;;2.03;1.20;;;20.70;99.90;;;;;;5051891;28;20051;-74
2023/07/21 12:39:51;;;;;;;2.78;1.30;;;20.60;99.90;;;;;;5056667;28;20040;-74
2023/07/21 12:42:17;;;;;;;4.47;1.60;;;20.50;99.90;;;;;;5055332;28;20047;-74
2023/07/21 12:44:43;;;;;;;2.85;1.60;;;20.30;99.90;;;;;;5085975;28;20040;-75
2023/07/21 12:47:09;;;;;;;2.72;1.50;;;20.10;99.90;;;;;;5064281;28;20116;-74